Date,TemperatureHighF,TemperatureAvgF,TemperatureLowF,DewpointHighF,DewpointAvgF,DewpointLowF,HumidityHigh,HumidityAvg,HumidityLow,PressureMaxIn,PressureMinIn,WindSpeedMaxMPH,WindSpeedAvgMPH,GustSpeedMaxMPH,PrecipitationSumIn
2013-3-1,43.0,36.3,27.0,29.0,24.5,14.0,72,62,54,0.00,40.00,28,23,50,0.00
2013-3-2,46.0,40.0,36.0,25.0,20.7,17.0,59,46,37,0.00,40.00,26,19,47,0.00
2013-3-3,38.0,27.2,11.0,25.0,18.4,5.0,96,71,46,0.00,40.00,33,21,56,0.00
2013-3-4,9.0,7.1,5.0,5.0,3.1,1.0,85,84,83,0.00,40.00,28,13,57,0.00
2013-3-5,28.0,16.9,7.0,25.0,13.5,3.0,90,86,76,0.00,40.00,16,9,20,0.00
2013-3-6,34.0,31.0,25.0,30.0,16.1,5.0,99,57,36,0.00,40.00,24,13,40,0.00
2013-3-7,32.0,27.6,23.0,28.0,20.3,13.0,99,76,47,0.00,40.00,23,13,44,0.00
2013-3-8,40.0,29.3,25.0,26.0,15.8,7.0,71,57,45,0.00,40.00,18,9,27,0.00
2013-3-9,28.0,24.3,22.0,17.0,14.0,7.0,76,65,43,0.00,40.00,21,18,40,0.00
2013-3-10,39.0,33.0,28.0,20.0,15.3,13.0,68,48,38,0.00,40.00,26,17,43,0.00
2013-3-11,29.0,19.8,15.0,22.0,16.6,12.0,92,87,68,0.00,40.00,21,12,41,0.00
2013-3-12,35.0,22.9,13.0,31.0,19.0,10.0,99,85,62,0.00,40.00,27,13,48,0.00
2013-3-13,48.0,40.2,34.0,28.0,24.5,21.0,68,54,39,0.00,40.00,31,23,48,0.00
2013-3-14,47.0,43.2,39.0,26.0,23.6,21.0,53,46,38,0.00,40.00,23,17,40,0.00
2013-3-15,46.0,38.0,30.0,25.0,22.2,19.0,76,54,36,0.00,40.00,32,20,62,0.00
2013-3-16,37.0,30.3,27.0,29.0,24.1,20.0,98,78,50,0.00,40.00,20,12,26,0.00
2013-3-17,33.0,16.6,1.0,28.0,13.2,-3.0,99,87,62,0.00,40.00,25,12,48,0.00
2013-3-18,21.0,13.2,1.0,19.0,10.4,-3.0,92,88,82,0.00,40.00,13,8,25,0.00
2013-3-19,25.0,16.9,10.0,22.0,13.3,7.0,90,85,64,0.00,40.00,17,5,23,0.00
2013-3-20,44.0,36.6,25.0,25.0,14.1,-8.0,56,41,19,0.00,40.00,27,20,41,0.00
2013-3-21,35.0,27.4,20.0,30.0,11.3,3.0,99,53,30,0.00,40.00,31,18,49,0.00
2013-3-22,19.0,13.4,8.0,17.0,10.4,3.0,92,87,75,0.00,40.00,16,10,28,0.00
2013-3-23,14.0,6.6,0.0,11.0,2.8,-4.0,87,84,81,0.00,40.00,16,12,30,0.00
2013-3-24,19.0,9.5,2.0,15.0,5.4,-2.0,85,83,74,0.00,40.00,23,12,34,0.00
2013-3-25,37.0,26.7,14.0,10.0,3.5,-1.0,79,38,26,0.00,40.00,12,8,20,0.00
2013-3-26,41.0,32.1,25.0,13.0,8.8,3.0,55,38,30,0.00,40.00,17,7,26,0.00
2013-3-27,45.0,35.7,27.0,19.0,14.5,11.0,53,42,32,0.00,40.00,16,9,25,0.00
2013-3-28,47.0,42.0,38.0,27.0,23.9,21.0,61,49,38,0.00,40.00,9,4,14,0.00
2013-3-29,42.0,38.0,33.0,28.0,25.3,22.0,79,61,49,0.00,40.00,15,11,25,0.00
2013-3-30,41.0,35.3,31.0,24.0,20.0,15.0,72,55,36,0.00,40.00,17,13,37,0.00
2013-3-31,38.0,34.1,31.0,25.0,20.4,16.0,67,57,42,0.00,40.00,22,14,38,0.00